Terminal Aerodrome Forecast
Issued by NWS

Home | Current Version | Previous Version | Text Only | Print | Product List | Glossary On
Versions: 1 2 3 4 5 6 7 8 9 10 11 12 13 14 15 16 17
000
FTUS44 KLUB 221700
TAFCDS
TAF
KCDS 221732Z 2218/2318 35015KT P6SM SCT100 OVC200
     FM230000 34005KT P6SM SCT050 BKN100 PROB30 2304/2310 -SHRA
     FM231400 25014KT P6SM SCT050 BKN100=

USA.gov is the U.S. government's official web portal to all federal, state and local government web resources and services.